logo dgac
Lunes 20 de Mayo del 2019
Buscar por aerodromo o helipuerto
Ingrese nombre de aeródromo, localidad o designador OACI:
METAR del 20-05-2019 a las 13:00 UTC
METAR SCSN 201300Z 00000KT 7000 NSC 07/06 Q1021
Visibilidad: 7000 metros
Sin nubes bajo los 5000 pies o bajo del MSA (Mínimo de Seguridad del Aeródromo)
Temperatura: 7 °C
Rocío: 6 °C
Humedad_relativa: 93%
Presión: 1021 hPa
METAR del 20-05-2019 a las 13:00 UTC
METAR SCSN 201300Z 00000KT 7000 NSC 07/06 Q1021
Visibilidad: 7000 metros
Sin nubes bajo los 5000 pies o bajo del MSA (Mínimo de Seguridad del Aeródromo)
Temperatura: 7 °C
Rocío: 6 °C
Humedad_relativa: 93%
Presión: 1021 hPa
METAR del 20-05-2019 a las 12:00 UTC
METAR SCSN 201200Z 00000KT CAVOK 03/02 Q1021
Visibilidad: 10 km o más,
    sin nubes bajo los 5.000 pies o bajo del MSA (Mínimo de Seguridad del Aeródromo),
    sin cumulonimbus, y sin fenómenos de tiempo significativo en el aeródromo o alrededores
Temperatura: 3 °C
Rocío: 2 °C
Humedad_relativa: 93%
Presión: 1021 hPa
METAR del 20-05-2019 a las 12:00 UTC
METAR SCSN 201200Z 00000KT CAVOK 03/02 Q1021
Visibilidad: 10 km o más,
    sin nubes bajo los 5.000 pies o bajo del MSA (Mínimo de Seguridad del Aeródromo),
    sin cumulonimbus, y sin fenómenos de tiempo significativo en el aeródromo o alrededores
Temperatura: 3 °C
Rocío: 2 °C
Humedad_relativa: 93%
Presión: 1021 hPa
METAR del 20-05-2019 a las 11:00 UTC
METAR SCSN 201100Z AUTO VRB02KT CAVOK 03/02 Q1020
Nan: AUTO
Viento: dirección variable, velocidad 2 nudos
Visibilidad: 10 km o más,
    sin nubes bajo los 5.000 pies o bajo del MSA (Mínimo de Seguridad del Aeródromo),
    sin cumulonimbus, y sin fenómenos de tiempo significativo en el aeródromo o alrededores
Temperatura: 3 °C
Rocío: 2 °C
Humedad_relativa: 93%
Presión: 1020 hPa
METAR del 20-05-2019 a las 10:00 UTC
METAR SCSN 201000Z AUTO VRB02KT CAVOK 03/02 Q1020
Nan: AUTO
Viento: dirección variable, velocidad 2 nudos
Visibilidad: 10 km o más,
    sin nubes bajo los 5.000 pies o bajo del MSA (Mínimo de Seguridad del Aeródromo),
    sin cumulonimbus, y sin fenómenos de tiempo significativo en el aeródromo o alrededores
Temperatura: 3 °C
Rocío: 2 °C
Humedad_relativa: 93%
Presión: 1020 hPa
METAR del 20-05-2019 a las 09:00 UTC
METAR SCSN 200900Z AUTO VRB01KT CAVOK 04/04 Q1019
Nan: AUTO
Viento: dirección variable, velocidad 1 nudos
Visibilidad: 10 km o más,
    sin nubes bajo los 5.000 pies o bajo del MSA (Mínimo de Seguridad del Aeródromo),
    sin cumulonimbus, y sin fenómenos de tiempo significativo en el aeródromo o alrededores
Temperatura: 4 °C
Rocío: 4 °C
Humedad_relativa: 100%
Presión: 1019 hPa
METAR del 20-05-2019 a las 08:00 UTC
METAR SCSN 200800Z AUTO 09003KT CAVOK 05/04 Q1019
Nan: AUTO
Viento: dirección 090 grados, velocidad 3 nudos
Visibilidad: 10 km o más,
    sin nubes bajo los 5.000 pies o bajo del MSA (Mínimo de Seguridad del Aeródromo),
    sin cumulonimbus, y sin fenómenos de tiempo significativo en el aeródromo o alrededores
Temperatura: 5 °C
Rocío: 4 °C
Humedad_relativa: 93%
Presión: 1019 hPa
METAR del 20-05-2019 a las 07:00 UTC
METAR SCSN 200700Z AUTO 00000KT CAVOK 04/04 Q1019
Nan: AUTO
Visibilidad: 10 km o más,
    sin nubes bajo los 5.000 pies o bajo del MSA (Mínimo de Seguridad del Aeródromo),
    sin cumulonimbus, y sin fenómenos de tiempo significativo en el aeródromo o alrededores
Temperatura: 4 °C
Rocío: 4 °C
Humedad_relativa: 100%
Presión: 1019 hPa
METAR del 20-05-2019 a las 06:00 UTC
METAR SCSN 200600Z AUTO VRB02KT CAVOK 05/04 Q1019
Nan: AUTO
Viento: dirección variable, velocidad 2 nudos
Visibilidad: 10 km o más,
    sin nubes bajo los 5.000 pies o bajo del MSA (Mínimo de Seguridad del Aeródromo),
    sin cumulonimbus, y sin fenómenos de tiempo significativo en el aeródromo o alrededores
Temperatura: 5 °C
Rocío: 4 °C
Humedad_relativa: 93%
Presión: 1019 hPa